HST,Max TemperatureF,Mean TemperatureF,Min TemperatureF,Max Dew PointF,MeanDew PointF,Min DewpointF,Max Humidity, Mean Humidity, Min Humidity, Max Sea Level PressureIn, Mean Sea Level PressureIn, Min Sea Level PressureIn, Max VisibilityMiles, Mean VisibilityMiles, Min VisibilityMiles, Max Wind SpeedMPH, Mean Wind SpeedMPH, Max Gust SpeedMPH,PrecipitationIn, CloudCover, Events, WindDirDegrees
2014-1-1,79,72,64,70,66,62,93,80,67,29.98,29.93,29.87,10,10,10,15,8,20,T,3,Rain,211
2014-1-2,82,75,68,70,69,66,97,83,69,29.87,29.77,29.70,10,10,6,25,11,33,0.19,6,Rain,231
2014-1-3,77,71,64,65,57,51,90,67,43,29.95,29.85,29.76,10,10,10,23,12,31,T,3,,339
2014-1-4,76,71,66,59,54,50,73,58,43,30.03,29.97,29.93,10,10,10,25,13,32,T,5,Rain,15
2014-1-5,76,68,59,61,57,51,90,67,43,30.06,30.01,29.94,10,10,10,21,9,25,0.05,4,Rain-Thunderstorm,320
2014-1-6,76,68,59,62,57,54,87,71,54,30.12,30.07,30.02,10,10,4,18,10,22,0.02,3,Rain,357
2014-1-7,78,74,69,62,59,57,73,64,54,30.15,30.10,30.06,10,10,10,22,17,26,0.00,3,,34
2014-1-8,77,72,67,62,60,57,81,69,56,30.10,30.05,29.99,10,10,10,8,15,13,T,4,,8
2014-1-9,78,72,65,67,64,61,93,78,62,30.04,29.99,29.94,10,10,6,16,7,20,T,5,Rain,349
2014-1-10,79,74,69,70,68,64,90,79,67,30.06,29.99,29.92,10,10,6,26,16,32,0.06,5,Rain,37
2014-1-11,78,74,69,70,69,65,97,83,69,29.97,29.93,29.89,10,10,9,17,6,21,T,4,,101
2014-1-12,79,73,66,70,68,63,97,86,74,30.01,29.96,29.92,10,10,4,12,4,16,0.16,5,Rain-Thunderstorm,238
2014-1-13,79,73,66,71,68,63,100,86,71,29.96,29.92,29.86,10,9,2,23,8,29,0.37,5,Rain,244
2014-1-14,80,72,64,67,65,62,93,78,62,29.91,29.87,29.83,10,10,10,16,8,21,T,3,,262
2014-1-15,80,71,62,70,65,60,93,80,67,29.90,29.86,29.79,10,10,2,21,8,26,0.12,3,Rain,228
2014-1-16,80,73,66,68,66,58,97,83,69,30.01,29.94,29.88,10,10,2,12,8,15,0.02,6,Rain,276
2014-1-17,78,73,67,70,67,65,100,87,74,30.06,30.01,29.98,10,9,4,8,4,10,0.01,6,Rain,316
2014-1-18,78,71,63,69,66,62,100,85,69,30.06,30.00,29.95,10,10,8,8,6,10,T,4,Rain,271
2014-1-19,79,71,62,70,65,61,100,85,69,30.00,29.95,29.91,10,10,10,18,8,32,0.00,3,,335
2014-1-20,77,70,62,66,63,60,93,81,69,29.96,29.91,29.86,10,10,10,14,7,17,0.00,2,,235
2014-1-21,78,72,65,68,66,62,93,80,67,29.89,29.81,29.75,10,10,4,33,13,43,0.08,5,Rain,221
2014-1-22,78,71,63,66,55,50,90,65,40,29.95,29.84,29.75,10,10,10,20,9,26,0.01,3,,320
2014-1-23,75,66,56,57,53,51,84,67,49,29.99,29.94,29.89,10,10,10,10,6,13,0.00,4,,291
2014-1-24,78,68,58,60,57,54,84,67,50,29.95,29.87,29.80,10,10,10,20,9,24,0.00,4,,249
2014-1-25,80,72,63,65,60,56,78,64,50,29.83,29.79,29.73,10,10,10,30,15,38,0.00,4,,231
2014-1-26,78,73,68,70,65,59,97,81,64,29.95,29.86,29.80,10,10,8,15,6,18,T,8,Rain,330
2014-1-27,74,69,64,64,61,59,93,81,68,30.07,29.99,29.93,10,10,6,26,11,32,0.04,7,Rain,348
2014-1-28,73,68,63,63,58,55,87,70,53,30.16,30.10,30.04,10,10,4,25,18,31,0.30,6,Rain,18
2014-1-29,76,72,68,70,65,58,90,78,66,30.12,30.06,30.00,10,10,4,25,18,30,0.03,8,Rain,46
2014-1-30,77,71,65,70,67,63,97,86,74,30.02,29.95,29.86,10,10,3,16,6,21,0.25,5,Rain,42
2014-1-31,79,71,63,70,66,61,93,80,67,29.90,29.85,29.80,10,10,10,20,6,25,T,5,,219